createdAt,value
2019-03-06T00:00:47.608Z,99.90
2019-03-06T00:03:16.782Z,99.90
2019-03-06T00:05:46.235Z,99.90
2019-03-06T00:08:15.274Z,99.90
2019-03-06T00:10:44.274Z,99.90
2019-03-06T00:13:13.214Z,99.90
2019-03-06T00:15:42.329Z,99.90
2019-03-06T00:18:11.325Z,99.90
2019-03-06T00:20:40.257Z,99.90
2019-03-06T00:23:09.306Z,99.90
2019-03-06T00:25:38.931Z,99.90
2019-03-06T00:28:08.240Z,99.90
2019-03-06T00:30:37.190Z,99.90
2019-03-06T00:33:06.715Z,99.90
2019-03-06T00:35:39.118Z,99.90
2019-03-06T00:38:08.341Z,99.90
2019-03-06T00:40:55.878Z,99.90
2019-03-06T00:43:24.756Z,99.90
2019-03-06T00:45:53.762Z,99.90
2019-03-06T00:48:22.768Z,99.90
2019-03-06T00:50:51.772Z,99.90
2019-03-06T00:53:20.719Z,99.90
2019-03-06T00:55:49.630Z,99.90
2019-03-06T00:58:18.571Z,99.90
2019-03-06T01:00:47.698Z,99.90
2019-03-06T01:03:17.000Z,99.90
2019-03-06T01:05:46.058Z,99.90
2019-03-06T01:08:15.326Z,99.90
2019-03-06T01:10:44.455Z,99.90
2019-03-06T01:13:13.774Z,99.90
2019-03-06T01:15:43.133Z,99.90
2019-03-06T01:18:12.167Z,99.90
2019-03-06T01:20:41.440Z,99.90
2019-03-06T01:23:10.698Z,99.90
2019-03-06T01:25:40.023Z,99.90
2019-03-06T01:28:09.306Z,99.90
2019-03-06T01:30:38.378Z,99.90
2019-03-06T01:33:28.705Z,99.90
2019-03-06T01:36:09.702Z,99.90
2019-03-06T01:38:56.834Z,99.90
2019-03-06T01:41:54.247Z,99.90
2019-03-06T01:44:27.302Z,99.90
2019-03-06T01:46:56.351Z,99.90
2019-03-06T01:49:25.427Z,99.90
2019-03-06T01:51:54.666Z,99.90
2019-03-06T01:54:23.693Z,99.90
2019-03-06T01:56:52.883Z,99.90
2019-03-06T01:59:22.167Z,99.90
2019-03-06T02:02:10.420Z,99.90
2019-03-06T02:04:39.517Z,99.90
2019-03-06T02:07:09.488Z,99.90
2019-03-06T02:09:38.722Z,99.90
2019-03-06T02:12:07.736Z,99.90
2019-03-06T02:14:37.139Z,99.90
2019-03-06T02:17:06.204Z,99.90
2019-03-06T02:19:35.346Z,99.90
2019-03-06T02:22:04.690Z,99.90
2019-03-06T02:24:33.701Z,99.90
2019-03-06T02:27:02.710Z,99.90
2019-03-06T02:29:31.650Z,99.90
2019-03-06T02:32:00.597Z,99.90
2019-03-06T02:34:30.014Z,99.90
2019-03-06T02:36:59.223Z,99.90
2019-03-06T02:39:28.352Z,99.90
2019-03-06T02:41:57.292Z,99.90
2019-03-06T02:44:27.107Z,99.90
2019-03-06T02:46:56.050Z,99.90
2019-03-06T02:49:25.096Z,99.90
2019-03-06T02:51:54.017Z,99.90
2019-03-06T02:54:23.113Z,99.90
2019-03-06T02:56:52.131Z,99.90
2019-03-06T02:59:55.303Z,99.90
2019-03-06T03:02:32.872Z,99.90
2019-03-06T03:05:36.310Z,99.90
2019-03-06T03:08:05.431Z,99.90
2019-03-06T03:10:34.450Z,99.90
2019-03-06T03:13:03.586Z,99.90
2019-03-06T03:15:32.866Z,99.90
2019-03-06T03:18:01.807Z,99.90
2019-03-06T03:20:30.758Z,99.90
2019-03-06T03:22:59.777Z,99.90
2019-03-06T03:25:29.039Z,99.90
2019-03-06T03:27:58.068Z,99.90
2019-03-06T03:30:27.125Z,99.90
2019-03-06T03:32:56.171Z,99.90
2019-03-06T03:35:25.439Z,99.90
2019-03-06T03:37:54.767Z,99.90
2019-03-06T03:40:23.738Z,99.90
2019-03-06T03:42:52.726Z,99.90
2019-03-06T03:45:21.759Z,99.90
2019-03-06T03:47:50.765Z,99.90
2019-03-06T03:50:19.734Z,99.90
2019-03-06T03:52:48.687Z,99.90
2019-03-06T03:55:17.803Z,99.90
2019-03-06T03:57:46.827Z,99.90
2019-03-06T04:00:16.463Z,99.90
2019-03-06T04:02:45.797Z,99.90
2019-03-06T04:05:14.901Z,99.90
2019-03-06T04:07:43.973Z,99.90
2019-03-06T04:10:13.184Z,99.90
2019-03-06T04:12:42.227Z,99.90
2019-03-06T04:15:11.403Z,99.90
2019-03-06T04:17:40.432Z,99.90
2019-03-06T04:20:10.856Z,99.90
2019-03-06T04:22:39.889Z,99.90
2019-03-06T04:25:09.263Z,99.90
2019-03-06T04:27:38.314Z,99.90
2019-03-06T04:30:09.859Z,99.90
2019-03-06T04:32:38.866Z,99.90
2019-03-06T04:35:08.592Z,99.90
2019-03-06T04:37:37.873Z,99.90
2019-03-06T04:40:07.038Z,99.90
2019-03-06T04:42:36.047Z,99.90
2019-03-06T04:45:05.506Z,99.90
2019-03-06T04:47:34.435Z,99.90
2019-03-06T04:50:03.498Z,99.90
2019-03-06T04:52:32.421Z,99.90
2019-03-06T04:55:01.730Z,99.90
2019-03-06T04:57:30.695Z,99.90
2019-03-06T04:59:59.631Z,99.90
2019-03-06T05:02:28.625Z,99.90
2019-03-06T05:04:57.664Z,99.90
2019-03-06T05:07:26.714Z,99.90
2019-03-06T05:09:55.658Z,99.90
2019-03-06T05:12:24.646Z,99.90
2019-03-06T05:14:53.666Z,99.90
2019-03-06T05:17:32.362Z,99.90
2019-03-06T05:20:01.297Z,99.90
2019-03-06T05:22:30.946Z,99.90
2019-03-06T05:24:59.917Z,99.90
2019-03-06T05:27:28.866Z,99.90
2019-03-06T05:29:57.819Z,99.90
2019-03-06T05:32:34.975Z,99.90
2019-03-06T05:35:28.916Z,99.90
2019-03-06T05:38:07.578Z,99.90
2019-03-06T05:40:36.898Z,99.90
2019-03-06T05:43:05.950Z,99.90
2019-03-06T05:45:34.983Z,99.90
2019-03-06T05:48:04.253Z,99.90
2019-03-06T05:50:33.258Z,99.90
2019-03-06T05:53:02.302Z,99.90
2019-03-06T05:55:31.732Z,99.90
2019-03-06T05:58:00.922Z,99.90
2019-03-06T06:00:30.707Z,99.90
2019-03-06T06:02:59.734Z,99.90
2019-03-06T06:05:28.770Z,99.90
2019-03-06T06:07:58.026Z,99.90
2019-03-06T06:10:27.281Z,99.90
2019-03-06T06:12:56.328Z,99.90
2019-03-06T06:15:25.431Z,99.90
2019-03-06T06:17:54.651Z,99.90
2019-03-06T06:20:23.664Z,99.90
2019-03-06T06:23:11.812Z,99.90
2019-03-06T06:25:40.787Z,99.90
2019-03-06T06:28:09.786Z,99.90
2019-03-06T06:30:39.218Z,99.90
2019-03-06T06:33:08.555Z,99.90
2019-03-06T06:35:37.825Z,99.90
2019-03-06T06:38:06.778Z,99.90
2019-03-06T06:40:35.885Z,99.90
2019-03-06T06:43:04.921Z,99.90
2019-03-06T06:45:34.045Z,99.90
2019-03-06T06:48:11.118Z,99.90
2019-03-06T06:51:09.590Z,99.90
2019-03-06T06:54:10.842Z,99.90
2019-03-06T06:57:30.346Z,99.90
2019-03-06T07:01:10.658Z,99.90
2019-03-06T07:04:51.214Z,99.90
2019-03-06T07:07:38.160Z,99.90
2019-03-06T07:10:41.726Z,99.90
2019-03-06T07:13:21.762Z,99.90
2019-03-06T07:16:18.698Z,99.90
2019-03-06T07:19:12.898Z,99.90
2019-03-06T07:21:58.554Z,99.90
2019-03-06T07:24:36.470Z,99.90
2019-03-06T07:27:30.651Z,99.90
2019-03-06T07:30:06.605Z,99.90
2019-03-06T07:32:55.154Z,99.90
2019-03-06T07:36:12.109Z,99.90
2019-03-06T07:38:41.206Z,99.90
2019-03-06T07:41:47.598Z,99.90
2019-03-06T07:44:54.015Z,99.90
2019-03-06T07:47:40.833Z,99.90
2019-03-06T07:50:32.252Z,88.50
2019-03-06T07:53:54.111Z,77.00
2019-03-06T07:56:33.259Z,66.70
2019-03-06T07:59:02.292Z,58.80
2019-03-06T08:01:33.997Z,58.50
2019-03-06T08:04:11.369Z,60.00
2019-03-06T08:06:42.823Z,58.90
2019-03-06T08:09:16.464Z,57.80
2019-03-06T08:12:13.798Z,54.10
2019-03-06T08:15:08.054Z,51.30
2019-03-06T08:18:05.134Z,47.80
2019-03-06T08:20:55.384Z,46.80
2019-03-06T08:23:41.990Z,46.40
2019-03-06T08:26:11.262Z,46.50
2019-03-06T08:28:40.219Z,45.80
2019-03-06T08:31:30.307Z,45.80
2019-03-06T08:33:59.338Z,45.40
2019-03-06T08:36:28.452Z,44.70
2019-03-06T08:38:57.454Z,45.40
2019-03-06T08:41:26.412Z,45.30
2019-03-06T08:43:55.357Z,44.70
2019-03-06T08:46:43.749Z,45.40
2019-03-06T08:49:41.255Z,45.10
2019-03-06T08:52:24.198Z,43.80
2019-03-06T08:55:06.040Z,43.70
2019-03-06T08:57:53.278Z,42.30
2019-03-06T09:00:34.992Z,42.30
2019-03-06T09:03:17.237Z,43.40
2019-03-06T09:05:56.851Z,43.90
2019-03-06T09:08:45.401Z,44.60
2019-03-06T09:11:21.458Z,47.10
2019-03-06T09:14:14.577Z,49.10
2019-03-06T09:16:59.686Z,50.30
2019-03-06T09:19:47.798Z,49.80
2019-03-06T09:22:34.923Z,48.80
2019-03-06T09:25:26.336Z,48.80
2019-03-06T09:28:04.786Z,48.70
2019-03-06T09:30:50.037Z,48.70
2019-03-06T09:33:37.455Z,48.40
2019-03-06T09:36:19.668Z,46.50
2019-03-06T09:39:13.575Z,47.20
2019-03-06T09:42:10.612Z,47.90
2019-03-06T09:44:57.994Z,47.80
2019-03-06T09:47:33.258Z,47.70
2019-03-06T09:50:20.553Z,45.90
2019-03-06T09:53:17.909Z,46.70
2019-03-06T09:56:15.262Z,50.30
2019-03-06T09:59:02.256Z,50.60
2019-03-06T10:01:39.991Z,52.20
2019-03-06T10:04:29.249Z,52.40
2019-03-06T10:07:10.349Z,54.30
2019-03-06T10:09:59.366Z,55.40
2019-03-06T10:12:52.348Z,56.10
2019-03-06T10:15:33.202Z,58.20
2019-03-06T10:18:11.933Z,59.50
2019-03-06T10:20:40.912Z,60.90
2019-03-06T10:23:09.880Z,62.20
2019-03-06T10:25:38.887Z,61.70
2019-03-06T10:28:07.986Z,62.50
2019-03-06T10:30:37.097Z,62.40
2019-03-06T10:33:06.506Z,63.10
2019-03-06T10:35:35.495Z,62.20
2019-03-06T10:38:04.686Z,63.20
2019-03-06T10:40:33.711Z,61.40
2019-03-06T10:43:03.915Z,59.00
2019-03-06T10:45:38.997Z,61.10
2019-03-06T10:48:03.666Z,59.90
2019-03-06T10:50:32.745Z,56.70
2019-03-06T10:53:02.586Z,56.90
2019-03-06T10:55:32.106Z,56.10
2019-03-06T10:58:01.647Z,56.00
2019-03-06T11:00:34.339Z,56.70
2019-03-06T11:03:03.433Z,56.30
2019-03-06T11:05:34.182Z,57.50
2019-03-06T11:08:04.570Z,57.90
2019-03-06T11:10:34.631Z,58.90
2019-03-06T11:13:08.697Z,56.90
2019-03-06T11:15:38.518Z,55.50
2019-03-06T11:18:07.899Z,56.10
2019-03-06T11:20:37.534Z,55.20
2019-03-06T11:23:08.058Z,54.00
2019-03-06T11:25:39.806Z,53.70
2019-03-06T11:28:10.330Z,53.60
2019-03-06T11:30:43.468Z,54.90
2019-03-06T11:33:13.520Z,54.00
2019-03-06T11:35:43.493Z,52.60
2019-03-06T11:38:13.080Z,52.70
2019-03-06T11:40:42.146Z,53.40
2019-03-06T11:43:11.671Z,55.10
2019-03-06T11:45:41.215Z,52.50
2019-03-06T11:48:10.801Z,53.70
2019-03-06T11:50:41.089Z,52.60
2019-03-06T11:53:10.558Z,52.30
2019-03-06T11:55:39.667Z,52.40
2019-03-06T11:58:11.076Z,52.30
2019-03-06T12:00:43.782Z,51.20
2019-03-06T12:03:13.483Z,51.10
2019-03-06T12:05:43.275Z,51.60
2019-03-06T12:08:14.323Z,51.80
2019-03-06T12:10:43.619Z,53.30
2019-03-06T12:13:14.662Z,53.60
2019-03-06T12:15:49.281Z,51.80
2019-03-06T12:18:20.297Z,53.50
2019-03-06T12:20:49.379Z,53.30
2019-03-06T12:23:18.714Z,53.50
2019-03-06T12:25:48.132Z,54.10
2019-03-06T12:28:18.039Z,54.00
2019-03-06T12:30:47.335Z,54.10
2019-03-06T12:33:19.942Z,54.00
2019-03-06T12:35:49.167Z,54.10
2019-03-06T12:38:18.297Z,53.70
2019-03-06T12:40:47.413Z,54.90
2019-03-06T12:43:17.276Z,54.50
2019-03-06T12:46:09.819Z,56.00
2019-03-06T12:48:38.931Z,54.60
2019-03-06T12:51:07.850Z,54.70
2019-03-06T12:53:36.965Z,55.60
2019-03-06T12:56:06.583Z,55.70
2019-03-06T12:58:35.749Z,54.80
2019-03-06T13:01:05.359Z,54.70
2019-03-06T13:03:34.670Z,55.00
2019-03-06T13:06:03.825Z,56.10
2019-03-06T13:08:32.877Z,56.70
2019-03-06T13:11:01.899Z,55.30
2019-03-06T13:13:35.535Z,55.30
2019-03-06T13:16:01.990Z,54.70
2019-03-06T13:18:31.395Z,54.00
2019-03-06T13:21:00.342Z,55.40
2019-03-06T13:23:29.657Z,55.70
2019-03-06T13:26:09.820Z,57.10
2019-03-06T13:28:31.775Z,57.60
2019-03-06T13:31:00.797Z,57.20
2019-03-06T13:33:50.975Z,57.60
2019-03-06T13:36:19.994Z,56.60
2019-03-06T13:38:55.025Z,57.00
2019-03-06T13:41:21.658Z,57.60
2019-03-06T13:43:50.460Z,58.10
2019-03-06T13:46:19.883Z,58.20
2019-03-06T13:48:48.798Z,57.90
2019-03-06T13:51:17.836Z,59.10
2019-03-06T13:53:46.910Z,59.10
2019-03-06T13:56:15.955Z,59.60
2019-03-06T13:58:45.399Z,60.80
2019-03-06T14:01:14.963Z,59.90
2019-03-06T14:03:44.299Z,59.20
2019-03-06T14:06:13.400Z,60.00
2019-03-06T14:08:42.442Z,59.50
2019-03-06T14:11:11.483Z,60.30
2019-03-06T14:13:40.489Z,60.90
2019-03-06T14:16:09.621Z,60.40
2019-03-06T14:18:38.729Z,62.70
2019-03-06T14:21:07.798Z,62.20
2019-03-06T14:23:36.790Z,63.30
2019-03-06T14:26:07.819Z,63.20
2019-03-06T14:28:36.915Z,62.90
2019-03-06T14:31:06.011Z,63.80
2019-03-06T14:33:35.078Z,64.10
2019-03-06T14:36:04.179Z,64.60
2019-03-06T14:38:33.833Z,64.00
2019-03-06T14:41:03.175Z,63.70
2019-03-06T14:43:32.274Z,64.20
2019-03-06T14:46:01.345Z,64.00
2019-03-06T14:48:30.465Z,63.70
2019-03-06T14:50:59.901Z,63.50
2019-03-06T14:53:29.920Z,64.00
2019-03-06T14:55:59.019Z,63.30
2019-03-06T14:58:28.046Z,63.90
2019-03-06T15:00:57.467Z,64.40
2019-03-06T15:03:26.566Z,63.80
2019-03-06T15:05:55.674Z,64.60
2019-03-06T15:08:24.756Z,66.00
2019-03-06T15:10:54.097Z,66.10
2019-03-06T15:13:23.075Z,65.60
2019-03-06T15:15:52.022Z,65.80
2019-03-06T15:18:21.602Z,66.30
2019-03-06T15:20:50.555Z,66.60
2019-03-06T15:23:19.588Z,66.60
2019-03-06T15:25:48.658Z,66.30
2019-03-06T15:28:17.691Z,66.40
2019-03-06T15:30:46.874Z,66.60
2019-03-06T15:33:15.966Z,66.90
2019-03-06T15:35:44.988Z,68.10
2019-03-06T15:38:14.266Z,68.50
2019-03-06T15:40:43.598Z,69.40
2019-03-06T15:43:14.553Z,69.90
2019-03-06T15:45:43.633Z,70.70
2019-03-06T15:48:13.254Z,71.50
2019-03-06T15:50:42.258Z,71.30
2019-03-06T15:53:13.474Z,72.40
2019-03-06T15:55:42.816Z,72.70
2019-03-06T15:58:12.419Z,74.20
2019-03-06T16:00:46.201Z,75.10
2019-03-06T16:03:13.223Z,75.40
2019-03-06T16:05:43.632Z,77.60
2019-03-06T16:08:13.471Z,78.60
2019-03-06T16:10:43.158Z,79.60
2019-03-06T16:13:12.418Z,79.30
2019-03-06T16:15:41.847Z,80.20
2019-03-06T16:18:11.141Z,81.40
2019-03-06T16:20:40.498Z,81.60
2019-03-06T16:23:09.590Z,82.10
2019-03-06T16:25:40.272Z,82.40
2019-03-06T16:28:09.919Z,84.40
2019-03-06T16:30:39.808Z,84.90
2019-03-06T16:33:11.830Z,85.40
2019-03-06T16:35:41.110Z,87.70
2019-03-06T16:38:10.152Z,88.40
2019-03-06T16:40:39.420Z,89.10
2019-03-06T16:43:08.525Z,90.70
2019-03-06T16:45:39.453Z,91.90
2019-03-06T16:48:08.688Z,92.60
2019-03-06T16:50:38.160Z,93.00
2019-03-06T16:53:07.280Z,94.90
2019-03-06T16:55:36.430Z,95.90
2019-03-06T16:58:05.668Z,98.10
2019-03-06T17:00:35.243Z,99.60
2019-03-06T17:03:04.372Z,99.80
2019-03-06T17:05:33.907Z,99.80
2019-03-06T17:08:03.704Z,99.60
2019-03-06T17:10:33.195Z,99.40
2019-03-06T17:13:02.523Z,99.90
2019-03-06T17:15:32.313Z,99.90
2019-03-06T17:18:01.679Z,99.90
2019-03-06T17:20:31.178Z,99.90
2019-03-06T17:23:00.377Z,99.90
2019-03-06T17:25:30.055Z,99.90
2019-03-06T17:27:59.269Z,99.90
2019-03-06T17:30:28.453Z,99.90
2019-03-06T17:33:05.810Z,99.90
2019-03-06T17:35:35.554Z,99.90
2019-03-06T17:38:06.675Z,99.90
2019-03-06T17:40:35.822Z,99.90
2019-03-06T17:43:05.470Z,99.90
2019-03-06T17:45:34.556Z,99.90
2019-03-06T17:48:03.918Z,99.90
2019-03-06T17:50:33.004Z,99.90
2019-03-06T17:53:02.102Z,99.90
2019-03-06T17:55:31.451Z,99.90
2019-03-06T17:58:00.512Z,99.90
2019-03-06T18:00:35.429Z,99.90
2019-03-06T18:03:05.291Z,99.90
2019-03-06T18:05:34.372Z,99.90
2019-03-06T18:08:03.384Z,99.90
2019-03-06T18:10:32.406Z,99.90
2019-03-06T18:13:01.410Z,99.90
2019-03-06T18:15:30.946Z,99.90
2019-03-06T18:17:59.939Z,99.90
2019-03-06T18:20:28.982Z,99.90
2019-03-06T18:22:58.073Z,99.90
2019-03-06T18:25:27.170Z,99.90
2019-03-06T18:27:56.379Z,99.90
2019-03-06T18:30:26.017Z,99.90
2019-03-06T18:32:55.148Z,99.90
2019-03-06T18:35:24.254Z,99.90
2019-03-06T18:37:53.403Z,99.90
2019-03-06T18:40:22.569Z,99.90
2019-03-06T18:42:51.650Z,99.90
2019-03-06T18:45:21.656Z,99.90
2019-03-06T18:47:51.266Z,99.90
2019-03-06T18:50:20.632Z,99.90
2019-03-06T18:52:49.707Z,99.90
2019-03-06T18:55:19.215Z,99.90
2019-03-06T18:57:48.541Z,99.90
2019-03-06T19:00:19.839Z,99.90
2019-03-06T19:02:49.036Z,99.90
2019-03-06T19:05:18.430Z,99.90
2019-03-06T19:07:47.691Z,99.90
2019-03-06T19:10:17.858Z,99.90
2019-03-06T19:12:47.140Z,99.90
2019-03-06T19:15:18.193Z,99.90
2019-03-06T19:17:47.350Z,99.90
2019-03-06T19:20:18.054Z,99.90
2019-03-06T19:22:47.660Z,99.90
2019-03-06T19:25:17.298Z,99.90
2019-03-06T19:27:46.890Z,99.90
2019-03-06T19:30:17.690Z,99.90
2019-03-06T19:32:47.019Z,99.90
2019-03-06T19:35:17.069Z,99.90
2019-03-06T19:37:46.147Z,99.90
2019-03-06T19:40:15.582Z,99.90
2019-03-06T19:42:44.952Z,99.90
2019-03-06T19:45:15.335Z,99.90
2019-03-06T19:47:44.443Z,99.90
2019-03-06T19:50:15.756Z,99.90
2019-03-06T19:52:44.879Z,99.90
2019-03-06T19:55:16.126Z,99.90
2019-03-06T19:57:50.078Z,99.90
2019-03-06T20:00:19.695Z,99.90
2019-03-06T20:02:48.800Z,99.90
2019-03-06T20:05:17.954Z,99.90
2019-03-06T20:07:47.227Z,99.90
2019-03-06T20:10:16.957Z,99.90
2019-03-06T20:12:46.090Z,99.90
2019-03-06T20:15:16.922Z,99.90
2019-03-06T20:17:46.048Z,99.90
2019-03-06T20:20:15.426Z,99.90
2019-03-06T20:22:45.311Z,99.90
2019-03-06T20:25:14.899Z,99.90
2019-03-06T20:27:43.933Z,99.90
2019-03-06T20:30:15.061Z,99.90
2019-03-06T20:32:44.278Z,99.90
2019-03-06T20:35:13.995Z,99.90
2019-03-06T20:37:43.019Z,99.90
2019-03-06T20:40:12.082Z,99.90
2019-03-06T20:42:41.174Z,99.90
2019-03-06T20:45:10.398Z,99.90
2019-03-06T20:47:39.702Z,99.90
2019-03-06T20:50:09.956Z,99.90
2019-03-06T20:52:38.977Z,99.90
2019-03-06T20:55:08.225Z,99.90
2019-03-06T20:57:37.220Z,99.90
2019-03-06T21:00:06.580Z,99.90
2019-03-06T21:02:36.356Z,99.90
2019-03-06T21:05:06.023Z,99.90
2019-03-06T21:07:44.608Z,99.90
2019-03-06T21:10:06.211Z,99.90
2019-03-06T21:12:35.330Z,99.90
2019-03-06T21:15:05.111Z,99.90
2019-03-06T21:17:34.831Z,99.90
2019-03-06T21:20:06.190Z,99.90
2019-03-06T21:22:35.268Z,99.90
2019-03-06T21:25:04.318Z,99.90
2019-03-06T21:27:33.790Z,99.90
2019-03-06T21:30:03.390Z,99.90
2019-03-06T21:32:32.902Z,99.90
2019-03-06T21:35:02.099Z,99.90
2019-03-06T21:37:31.366Z,99.90
2019-03-06T21:40:00.356Z,99.90
2019-03-06T21:42:29.271Z,99.90
2019-03-06T21:44:58.230Z,99.90
2019-03-06T21:47:27.460Z,99.90
2019-03-06T21:49:56.433Z,99.90
2019-03-06T21:52:26.128Z,99.90
2019-03-06T21:54:55.294Z,99.90
2019-03-06T21:57:24.743Z,99.90
2019-03-06T21:59:53.765Z,99.90
2019-03-06T22:02:23.081Z,99.90
2019-03-06T22:04:52.623Z,99.90
2019-03-06T22:07:21.607Z,99.90
2019-03-06T22:09:50.792Z,99.90
2019-03-06T22:12:19.737Z,99.90
2019-03-06T22:14:48.762Z,99.90
2019-03-06T22:17:17.911Z,99.90
2019-03-06T22:19:47.110Z,99.90
2019-03-06T22:22:16.111Z,99.90
2019-03-06T22:24:45.357Z,99.90
2019-03-06T22:27:14.570Z,99.90
2019-03-06T22:29:43.508Z,99.90
2019-03-06T22:32:12.930Z,99.90
2019-03-06T22:34:42.110Z,99.90
2019-03-06T22:37:11.139Z,99.90
2019-03-06T22:39:40.411Z,99.90
2019-03-06T22:42:09.426Z,99.90
2019-03-06T22:44:38.667Z,99.90
2019-03-06T22:47:08.064Z,99.90
2019-03-06T22:49:37.063Z,99.90
2019-03-06T22:52:06.315Z,99.90
2019-03-06T22:54:35.555Z,99.90
2019-03-06T22:57:04.751Z,99.90
2019-03-06T22:59:33.760Z,99.90
2019-03-06T23:02:03.185Z,99.90
2019-03-06T23:04:32.218Z,99.90
2019-03-06T23:07:01.236Z,99.90
2019-03-06T23:09:30.315Z,99.90
2019-03-06T23:11:59.320Z,99.90
2019-03-06T23:14:28.289Z,99.90
2019-03-06T23:16:57.227Z,99.90
2019-03-06T23:19:27.457Z,99.90
2019-03-06T23:21:56.775Z,99.90
2019-03-06T23:24:25.721Z,99.90
2019-03-06T23:26:55.221Z,99.90
2019-03-06T23:29:24.787Z,99.90
2019-03-06T23:31:53.947Z,99.90
2019-03-06T23:34:23.178Z,99.90
2019-03-06T23:36:52.102Z,99.90
2019-03-06T23:39:21.036Z,99.90
2019-03-06T23:41:50.274Z,99.90
2019-03-06T23:44:19.242Z,99.90
2019-03-06T23:46:48.414Z,99.90
2019-03-06T23:49:17.372Z,99.90
2019-03-06T23:51:50.504Z,99.90
2019-03-06T23:54:19.566Z,99.90
2019-03-06T23:56:48.861Z,99.90
2019-03-06T23:59:17.895Z,99.90
